createdAt,value
2023-02-22T00:04:10.691Z,9.7
2023-02-22T00:09:16.881Z,9.7
2023-02-22T00:14:23.087Z,9.7
2023-02-22T00:19:29.294Z,9.7
2023-02-22T00:24:35.499Z,9.7
2023-02-22T00:29:41.710Z,9.7
2023-02-22T00:34:47.912Z,9.6
2023-02-22T00:39:54.124Z,9.6
2023-02-22T00:45:00.345Z,9.6
2023-02-22T00:50:06.545Z,9.6
2023-02-22T00:55:12.748Z,9.5
2023-02-22T01:00:18.959Z,9.5
2023-02-22T01:05:25.164Z,9.4
2023-02-22T01:10:31.374Z,9.4
2023-02-22T01:15:37.599Z,9.4
2023-02-22T01:20:43.784Z,9.4
2023-02-22T01:25:49.998Z,9.4
2023-02-22T01:30:56.669Z,9.4
2023-02-22T01:36:01.435Z,9.3
2023-02-22T01:41:07.664Z,9.3
2023-02-22T01:46:13.876Z,9.3
2023-02-22T01:51:19.264Z,9.3
2023-02-22T01:56:25.314Z,9.3
2023-02-22T02:01:30.520Z,9.3
2023-02-22T02:06:36.731Z,9.3
2023-02-22T02:11:42.955Z,9.3
2023-02-22T02:16:49.542Z,9.2
2023-02-22T02:21:55.370Z,9.2
2023-02-22T02:27:01.570Z,9.2
2023-02-22T02:32:07.961Z,9.1
2023-02-22T02:37:13.981Z,9.0
2023-02-22T02:42:20.190Z,9.0
2023-02-22T02:47:26.550Z,8.9
2023-02-22T02:52:32.885Z,8.9
2023-02-22T02:57:38.819Z,8.8
2023-02-22T03:02:45.024Z,8.8
2023-02-22T03:07:51.232Z,8.7
2023-02-22T03:12:57.439Z,8.7
2023-02-22T03:18:03.767Z,8.6
2023-02-22T03:23:09.851Z,8.6
2023-02-22T03:28:16.076Z,8.5
2023-02-22T03:33:22.281Z,8.5
2023-02-22T03:38:28.479Z,8.5
2023-02-22T03:43:34.697Z,8.4
2023-02-22T03:48:39.944Z,8.4
2023-02-22T03:53:46.132Z,8.4
2023-02-22T03:58:51.363Z,8.4
2023-02-22T04:03:57.656Z,8.4
2023-02-22T04:09:03.791Z,8.4
2023-02-22T04:14:09.994Z,8.4
2023-02-22T04:19:16.200Z,8.4
2023-02-22T04:24:22.428Z,8.4
2023-02-22T04:29:28.614Z,8.4
2023-02-22T04:34:34.822Z,8.4
2023-02-22T04:39:41.082Z,8.4
2023-02-22T04:44:47.243Z,8.4
2023-02-22T04:49:53.441Z,8.4
2023-02-22T04:54:59.652Z,8.4
2023-02-22T05:00:05.877Z,8.4
2023-02-22T05:05:12.066Z,8.3
2023-02-22T05:10:18.309Z,8.3
2023-02-22T05:15:24.544Z,8.3
2023-02-22T05:20:30.686Z,8.3
2023-02-22T05:25:36.895Z,8.3
2023-02-22T05:30:43.138Z,8.3
2023-02-22T05:35:49.315Z,8.4
2023-02-22T05:40:55.524Z,8.4
2023-02-22T05:46:00.763Z,8.4
2023-02-22T05:51:07.065Z,8.4
2023-02-22T05:56:12.208Z,8.4
2023-02-22T06:01:18.686Z,8.4
2023-02-22T06:06:24.615Z,8.4
2023-02-22T06:11:30.816Z,8.4
2023-02-22T06:16:37.060Z,8.4
2023-02-22T06:21:43.454Z,8.5
2023-02-22T06:26:49.440Z,8.5
2023-02-22T06:31:55.810Z,8.5
2023-02-22T06:37:01.856Z,8.5
2023-02-22T06:42:08.107Z,8.5
2023-02-22T06:47:14.271Z,8.5
2023-02-22T06:52:20.484Z,8.5
2023-02-22T06:57:26.682Z,8.5
2023-02-22T07:02:32.897Z,8.4
2023-02-22T07:07:39.103Z,8.4
2023-02-22T07:12:45.327Z,8.5
2023-02-22T07:17:50.558Z,8.5
2023-02-22T07:22:56.749Z,8.5
2023-02-22T07:28:02.962Z,8.5
2023-02-22T07:33:09.279Z,8.5
2023-02-22T07:38:15.378Z,8.5
2023-02-22T07:43:20.655Z,8.5
2023-02-22T07:48:26.832Z,8.6
2023-02-22T07:53:33.029Z,8.6
2023-02-22T07:58:38.371Z,8.6
2023-02-22T08:03:44.891Z,8.6
2023-02-22T08:08:50.685Z,8.7
2023-02-22T08:13:56.888Z,8.7
2023-02-22T08:19:03.094Z,8.8
2023-02-22T08:24:09.304Z,8.8
2023-02-22T08:29:15.516Z,8.8
2023-02-22T08:34:21.736Z,8.9
2023-02-22T08:39:27.922Z,8.9
2023-02-22T08:44:34.133Z,9.0
2023-02-22T08:49:40.364Z,9.0
2023-02-22T08:54:46.540Z,9.1
2023-02-22T08:59:53.077Z,9.2
2023-02-22T09:04:58.987Z,9.3
2023-02-22T09:10:05.167Z,9.3
2023-02-22T09:15:11.373Z,9.4
2023-02-22T09:20:17.640Z,9.5
2023-02-22T09:25:23.792Z,9.6
2023-02-22T09:30:30.009Z,9.7
2023-02-22T09:35:36.610Z,9.8
2023-02-22T09:40:42.407Z,9.8
2023-02-22T09:45:47.662Z,10.0
2023-02-22T09:50:53.853Z,10.1
2023-02-22T09:55:59.091Z,10.2
2023-02-22T10:01:05.299Z,10.3
2023-02-22T10:06:11.519Z,10.4
2023-02-22T10:11:17.709Z,10.5
2023-02-22T10:16:23.949Z,10.7
2023-02-22T10:21:30.128Z,10.8
2023-02-22T10:26:36.343Z,10.9
2023-02-22T10:31:42.590Z,11.0
2023-02-22T10:36:48.764Z,11.2
2023-02-22T10:41:54.966Z,11.4
2023-02-22T10:47:01.184Z,11.5
2023-02-22T10:52:07.389Z,11.7
2023-02-22T10:57:13.925Z,11.8
2023-02-22T11:02:19.799Z,12.0
2023-02-22T11:07:26.002Z,12.1
2023-02-22T11:12:32.229Z,12.3
2023-02-22T11:17:38.422Z,12.4
2023-02-22T11:22:44.634Z,12.7
2023-02-22T11:27:50.990Z,12.9
2023-02-22T11:32:57.052Z,13.1
2023-02-22T11:38:03.395Z,13.4
2023-02-22T11:43:08.803Z,13.6
2023-02-22T11:48:14.771Z,13.9
2023-02-22T11:53:20.906Z,14.1
2023-02-22T11:58:27.227Z,14.2
2023-02-22T12:03:33.394Z,14.4
2023-02-22T12:08:39.544Z,14.5
2023-02-22T12:13:45.753Z,14.6
2023-02-22T12:18:51.961Z,14.8
2023-02-22T12:23:58.186Z,14.9
2023-02-22T12:29:04.417Z,15.0
2023-02-22T12:34:10.721Z,15.1
2023-02-22T12:39:16.847Z,15.2
2023-02-22T12:44:23.056Z,15.2
2023-02-22T12:49:29.275Z,15.3
2023-02-22T12:54:35.489Z,15.4
2023-02-22T12:59:41.698Z,15.5
2023-02-22T13:04:47.896Z,15.6
2023-02-22T13:09:54.105Z,15.6
2023-02-22T13:15:00.321Z,15.6
2023-02-22T13:20:06.522Z,15.6
2023-02-22T13:25:12.751Z,15.5
2023-02-22T13:30:18.977Z,15.5
2023-02-22T13:35:24.198Z,15.5
2023-02-22T13:40:30.379Z,15.5
2023-02-22T13:45:35.614Z,15.5
2023-02-22T13:50:41.825Z,15.4
2023-02-22T13:55:47.313Z,15.3
2023-02-22T14:00:53.274Z,15.3
2023-02-22T14:05:59.481Z,15.2
2023-02-22T14:11:05.711Z,15.2
2023-02-22T14:16:11.958Z,15.2
2023-02-22T14:21:18.133Z,15.1
2023-02-22T14:26:24.352Z,15.0
2023-02-22T14:31:36.441Z,15.0
2023-02-22T14:36:36.783Z,14.9
2023-02-22T14:41:43.036Z,14.8
2023-02-22T14:46:49.554Z,14.7
2023-02-22T14:51:55.426Z,14.5
2023-02-22T14:57:01.650Z,14.4
2023-02-22T15:02:11.660Z,14.3
2023-02-22T15:07:14.183Z,14.2
2023-02-22T15:12:20.319Z,14.0
2023-02-22T15:17:26.489Z,13.9
2023-02-22T15:22:32.690Z,13.8
2023-02-22T15:27:38.939Z,13.7
2023-02-22T15:33:02.589Z,13.6
2023-02-22T15:37:51.321Z,13.6
2023-02-22T15:42:56.562Z,13.5
2023-02-22T15:48:03.082Z,13.5
2023-02-22T15:53:08.010Z,13.4
2023-02-22T15:58:14.231Z,13.4
2023-02-22T16:03:20.432Z,13.3
2023-02-22T16:08:26.633Z,13.3
2023-02-22T16:13:33.197Z,13.2
2023-02-22T16:18:39.052Z,13.2
2023-02-22T16:23:45.262Z,13.1
2023-02-22T16:28:51.466Z,13.1
2023-02-22T16:33:57.678Z,13.0
2023-02-22T16:39:03.884Z,13.0
2023-02-22T16:44:10.142Z,12.9
2023-02-22T16:49:16.313Z,12.9
2023-02-22T16:54:22.505Z,12.8
2023-02-22T16:59:28.712Z,12.8
2023-02-22T17:04:34.936Z,12.8
2023-02-22T17:09:41.122Z,12.7
2023-02-22T17:14:47.326Z,12.7
2023-02-22T17:19:53.540Z,12.7
2023-02-22T17:24:59.757Z,12.6
2023-02-22T17:30:05.953Z,12.6
2023-02-22T17:35:12.163Z,12.6
2023-02-22T17:40:17.433Z,12.5
2023-02-22T17:45:23.614Z,12.5
2023-02-22T17:50:28.854Z,12.5
2023-02-22T17:55:35.065Z,12.5
2023-02-22T18:00:41.279Z,12.4
2023-02-22T18:05:47.475Z,12.4
2023-02-22T18:10:53.675Z,12.4
2023-02-22T18:16:00.419Z,12.4
2023-02-22T18:21:06.095Z,12.4
2023-02-22T18:26:12.323Z,12.4
2023-02-22T18:31:18.563Z,12.4
2023-02-22T18:36:24.866Z,12.4
2023-02-22T18:41:30.925Z,12.4
2023-02-22T18:46:37.200Z,12.4
2023-02-22T18:51:43.342Z,12.4
2023-02-22T18:56:49.549Z,12.3
2023-02-22T19:01:55.795Z,12.3
2023-02-22T19:07:01.967Z,12.3
2023-02-22T19:12:08.179Z,12.3
2023-02-22T19:17:14.388Z,12.3
2023-02-22T19:22:20.598Z,12.3
2023-02-22T19:27:26.801Z,12.2
2023-02-22T19:32:33.059Z,12.3
2023-02-22T19:37:38.238Z,12.3
2023-02-22T19:42:44.456Z,12.3
2023-02-22T19:47:49.691Z,12.3
2023-02-22T19:52:55.892Z,12.2
2023-02-22T19:58:02.115Z,12.2
2023-02-22T20:03:08.349Z,12.2
2023-02-22T20:08:14.511Z,12.2
2023-02-22T20:13:20.727Z,12.2
2023-02-22T20:18:27.262Z,12.2
2023-02-22T20:23:33.138Z,12.2
2023-02-22T20:28:39.349Z,12.2
2023-02-22T20:33:45.773Z,12.1
2023-02-22T20:38:51.770Z,12.1
2023-02-22T20:43:57.980Z,12.1
2023-02-22T20:49:04.186Z,12.1
2023-02-22T20:54:10.393Z,12.0
2023-02-22T20:59:16.598Z,12.0
2023-02-22T21:04:23.091Z,12.0
2023-02-22T21:09:29.017Z,12.0
2023-02-22T21:14:35.229Z,12.0
2023-02-22T21:19:41.435Z,12.0
2023-02-22T21:24:47.645Z,11.9
2023-02-22T21:29:53.845Z,11.9
2023-02-22T21:34:59.087Z,11.9
2023-02-22T21:40:05.294Z,11.9
2023-02-22T21:45:10.529Z,11.8
2023-02-22T21:50:16.752Z,11.8
2023-02-22T21:55:22.945Z,11.8
2023-02-22T22:00:29.345Z,11.8
2023-02-22T22:05:35.371Z,11.8
2023-02-22T22:10:41.570Z,11.8
2023-02-22T22:15:47.826Z,11.8
2023-02-22T22:20:53.978Z,11.8
2023-02-22T22:26:00.184Z,11.8
2023-02-22T22:31:06.509Z,11.7
2023-02-22T22:36:12.720Z,11.7
2023-02-22T22:41:19.390Z,11.7
2023-02-22T22:46:25.078Z,11.7
2023-02-22T22:51:33.364Z,11.7
2023-02-22T22:56:37.438Z,11.7
2023-02-22T23:01:43.648Z,11.7
2023-02-22T23:06:49.884Z,11.7
2023-02-22T23:11:56.067Z,11.7
2023-02-22T23:17:02.275Z,11.6
2023-02-22T23:22:08.473Z,11.6
2023-02-22T23:27:14.676Z,11.6
2023-02-22T23:32:20.151Z,11.6
2023-02-22T23:37:26.130Z,11.6
2023-02-22T23:42:31.719Z,11.6
2023-02-22T23:47:37.573Z,11.6
2023-02-22T23:52:43.784Z,11.6
2023-02-22T23:57:50.000Z,11.6
